Time;durP1;ratioP1;P1;durP2;ratioP2;P2;SDS_P1;SDS_P2;PMS_P1;PMS_P2;Temp;Humidity;BMP_temperature;BMP_pressure;BME280_temperature;BME280_humidity;BME280_pressure;Samples;Min_cycle;Max_cycle;Signal;HPM_P1;HPM_P2
2022/05/20 00:01:02;;;;;;;7.80;4.40;;;20.70;99.90;;;;;;5050981;28;20049;-53
2022/05/20 00:03:29;;;;;;;6.72;4.60;;;20.60;99.90;;;;;;5054520;28;20024;-49
2022/05/20 00:05:55;;;;;;;4.25;3.33;;;20.50;99.90;;;;;;5054826;28;20035;-51
2022/05/20 00:08:21;;;;;;;9.13;3.75;;;20.40;99.90;;;;;;5054962;28;20029;-51
2022/05/20 00:10:46;;;;;;;10.27;4.35;;;20.40;99.90;;;;;;5054468;28;20369;-51
2022/05/20 00:13:12;;;;;;;7.45;3.30;;;20.30;99.90;;;;;;5054952;28;20381;-50
2022/05/20 00:15:38;;;;;;;9.18;4.25;;;20.30;99.90;;;;;;5054791;28;20029;-52
2022/05/20 00:18:04;;;;;;;8.60;4.63;;;20.20;99.90;;;;;;5054873;28;20120;-53
2022/05/20 00:20:30;;;;;;;8.93;3.90;;;20.00;99.90;;;;;;5054826;28;20449;-53
2022/05/20 00:22:56;;;;;;;12.88;4.07;;;19.90;99.90;;;;;;5054734;28;20052;-48
2022/05/20 00:28:08;;;;;;;9.32;4.03;;;19.80;99.90;;;;;;5054812;28;20039;-49
2022/05/20 00:30:34;;;;;;;6.25;4.10;;;19.80;99.90;;;;;;5054908;28;20025;-50
2022/05/20 00:32:59;;;;;;;7.82;4.60;;;19.70;99.90;;;;;;5054737;28;20021;-49
2022/05/20 00:35:26;;;;;;;18.17;5.40;;;19.70;99.90;;;;;;5054714;28;20121;-49
2022/05/20 00:37:52;;;;;;;10.57;4.10;;;19.60;99.90;;;;;;5054659;28;20032;-52
2022/05/20 00:40:21;;;;;;;5.60;4.30;;;19.50;99.90;;;;;;5054586;28;20042;-50
2022/05/20 00:42:48;;;;;;;15.55;5.68;;;19.60;99.90;;;;;;5054598;28;20025;-49
2022/05/20 00:45:15;;;;;;;7.45;4.47;;;19.50;99.90;;;;;;5054459;28;20086;-51
2022/05/20 00:47:42;;;;;;;6.18;4.47;;;19.50;99.90;;;;;;5054227;28;20025;-50
2022/05/20 00:50:17;;;;;;;13.05;5.55;;;19.40;99.90;;;;;;5054089;28;20365;-49
2022/05/20 00:52:47;;;;;;;10.30;4.68;;;19.30;99.90;;;;;;5054374;28;20044;-50
2022/05/20 00:55:17;;;;;;;10.48;4.95;;;19.30;99.90;;;;;;5054450;28;20104;-48
2022/05/20 00:57:49;;;;;;;9.63;5.22;;;19.10;99.90;;;;;;5054138;28;20112;-53
2022/05/20 01:00:30;;;;;;;6.90;4.75;;;19.00;99.90;;;;;;5054127;28;20028;-50
2022/05/20 01:03:01;;;;;;;11.65;4.85;;;18.90;99.90;;;;;;5053947;28;20366;-51
2022/05/20 01:05:39;;;;;;;7.95;4.93;;;19.00;99.90;;;;;;5053369;28;20029;-51
2022/05/20 01:08:07;;;;;;;11.13;5.05;;;19.00;99.90;;;;;;5053669;28;20021;-50
2022/05/20 01:10:34;;;;;;;11.38;5.88;;;18.90;99.90;;;;;;5053920;28;20028;-50
2022/05/20 01:13:00;;;;;;;9.45;5.20;;;18.90;99.90;;;;;;5053478;28;20064;-51
2022/05/20 01:15:27;;;;;;;9.48;4.85;;;18.80;99.90;;;;;;5053493;28;20052;-50
2022/05/20 01:17:54;;;;;;;9.65;5.30;;;18.90;99.90;;;;;;5053617;28;20071;-52
2022/05/20 01:20:24;;;;;;;6.95;4.80;;;19.00;99.90;;;;;;5054031;28;20028;-50
2022/05/20 01:23:10;;;;;;;9.05;5.22;;;19.00;99.90;;;;;;5053092;28;20048;-52
2022/05/20 01:25:40;;;;;;;13.23;5.40;;;19.00;99.90;;;;;;5053001;28;20029;-48
2022/05/20 01:28:06;;;;;;;6.43;4.97;;;19.00;99.90;;;;;;5052978;28;20025;-49
2022/05/20 01:30:32;;;;;;;13.73;5.88;;;19.00;99.90;;;;;;5053575;28;20074;-50
2022/05/20 01:33:03;;;;;;;11.75;5.80;;;19.00;99.90;;;;;;5053571;28;20415;-50
2022/05/20 01:35:41;;;;;;;11.77;5.97;;;19.00;99.90;;;;;;5053654;28;20010;-52
2022/05/20 01:38:09;;;;;;;8.98;5.65;;;19.00;99.90;;;;;;5053417;28;20029;-49
2022/05/20 01:41:05;;;;;;;7.05;6.25;;;19.00;99.90;;;;;;5053525;28;20025;-54
2022/05/20 01:43:40;;;;;;;8.38;5.88;;;19.10;99.90;;;;;;5053387;28;20029;-50
2022/05/20 01:46:17;;;;;;;19.67;6.18;;;19.20;99.90;;;;;;5053352;28;20465;-50
2022/05/20 01:48:43;;;;;;;17.27;6.22;;;19.10;99.90;;;;;;5053212;28;20644;-48
2022/05/20 01:51:12;;;;;;;7.78;5.30;;;19.10;99.90;;;;;;5052556;28;20074;-55
2022/05/20 01:53:55;;;;;;;7.90;5.03;;;19.20;99.90;;;;;;5052856;28;20023;-54
2022/05/20 01:56:30;;;;;;;8.05;4.53;;;19.20;99.90;;;;;;5052720;28;20536;-51
2022/05/20 01:59:09;;;;;;;8.38;3.75;;;19.20;99.90;;;;;;5052131;28;20067;-50
2022/05/20 02:01:43;;;;;;;5.68;3.55;;;19.20;99.90;;;;;;5050995;28;20033;-54
2022/05/20 02:04:28;;;;;;;6.32;3.40;;;19.20;99.90;;;;;;5052557;28;20025;-54
2022/05/20 02:06:58;;;;;;;7.85;3.63;;;19.10;99.90;;;;;;5052719;28;20661;-49
2022/05/20 02:09:37;;;;;;;7.45;3.97;;;19.00;99.90;;;;;;5052671;28;20426;-51
2022/05/20 02:12:03;;;;;;;4.15;3.75;;;18.90;99.90;;;;;;5052952;28;20506;-52
2022/05/20 02:14:31;;;;;;;8.00;4.25;;;18.90;99.90;;;;;;5052800;28;20032;-50
2022/05/20 02:17:15;;;;;;;6.05;4.40;;;18.80;99.90;;;;;;5052177;28;20025;-51
2022/05/20 02:19:47;;;;;;;6.18;4.05;;;18.70;99.90;;;;;;5050745;28;20029;-50
2022/05/20 02:22:19;;;;;;;5.82;4.18;;;18.60;99.90;;;;;;5052366;28;20541;-52
2022/05/20 02:24:47;;;;;;;13.05;4.70;;;18.50;99.90;;;;;;5052429;28;20032;-50
2022/05/20 02:27:21;;;;;;;7.00;3.75;;;18.50;99.90;;;;;;5052506;28;20087;-51
2022/05/20 02:29:48;;;;;;;;;;;18.40;99.90;;;;;;5052965;28;20127;-49
2022/05/20 02:32:31;;;;;;;5.30;4.20;;;18.30;99.90;;;;;;5051292;28;20334;-55
2022/05/20 02:34:57;;;;;;;6.03;4.03;;;18.40;99.90;;;;;;5052163;28;20414;-53
2022/05/20 02:37:22;;;;;;;10.45;4.07;;;18.30;99.90;;;;;;5052485;28;20033;-51
2022/05/20 02:39:48;;;;;;;8.52;4.45;;;18.30;99.90;;;;;;5051703;28;20491;-50
2022/05/20 02:42:14;;;;;;;9.45;4.90;;;18.20;99.90;;;;;;5051626;28;20035;-51
2022/05/20 02:44:40;;;;;;;5.70;4.40;;;18.30;99.90;;;;;;5051646;28;20025;-51
2022/05/20 02:47:05;;;;;;;5.28;4.45;;;18.10;99.90;;;;;;5051619;28;20021;-53
2022/05/20 02:49:31;;;;;;;6.47;4.32;;;18.00;99.90;;;;;;5051530;28;20362;-52
2022/05/20 02:51:57;;;;;;;8.10;4.50;;;17.90;99.90;;;;;;5051411;28;20104;-49
2022/05/20 02:54:22;;;;;;;6.68;4.55;;;17.80;99.90;;;;;;5051712;28;20017;-52
2022/05/20 02:56:48;;;;;;;14.50;4.63;;;17.70;99.90;;;;;;5051526;28;20064;-53
2022/05/20 03:05:05;;;;;;;8.68;4.20;;;17.40;99.90;;;;;;5050206;28;20056;-54
2022/05/20 03:07:31;;;;;;;13.43;4.32;;;17.50;99.90;;;;;;5050419;28;20040;-50
2022/05/20 03:09:56;;;;;;;9.00;4.63;;;17.40;99.90;;;;;;5050878;28;20020;-51
2022/05/20 03:12:22;;;;;;;5.22;4.63;;;17.40;99.90;;;;;;5050964;28;20021;-50
2022/05/20 03:14:48;;;;;;;8.65;4.97;;;17.30;99.90;;;;;;5050880;28;20104;-52
2022/05/20 03:17:13;;;;;;;6.93;5.25;;;17.30;99.90;;;;;;5049547;28;20025;-50
2022/05/20 03:19:39;;;;;;;7.50;4.32;;;17.20;99.90;;;;;;5050338;28;20036;-52
2022/05/20 03:22:06;;;;;;;23.13;6.13;;;17.10;99.90;;;;;;5050634;28;20056;-52
2022/05/20 03:24:32;;;;;;;7.70;4.70;;;16.90;99.90;;;;;;5051217;28;20365;-48
2022/05/20 03:26:58;;;;;;;11.85;5.20;;;16.80;99.90;;;;;;5051105;28;20536;-49
2022/05/20 03:29:25;;;;;;;12.00;5.70;;;16.80;99.90;;;;;;5051194;28;20048;-55
2022/05/20 03:31:51;;;;;;;7.60;5.25;;;16.70;99.90;;;;;;5050857;28;20033;-50
2022/05/20 03:34:18;;;;;;;30.15;7.10;;;16.70;99.90;;;;;;5050994;28;20120;-54
2022/05/20 03:36:46;;;;;;;12.40;5.50;;;16.60;99.90;;;;;;5050410;28;20021;-50
2022/05/20 03:39:14;;;;;;;8.85;5.82;;;16.60;99.90;;;;;;5050914;28;20051;-53
2022/05/20 03:41:41;;;;;;;5.18;4.53;;;16.50;99.90;;;;;;5050761;28;20416;-48
2022/05/20 03:44:09;;;;;;;13.57;4.85;;;16.50;99.90;;;;;;5049846;28;20360;-52
2022/05/20 03:46:51;;;;;;;10.68;5.25;;;16.40;99.90;;;;;;5050199;28;20017;-52
2022/05/20 03:49:18;;;;;;;6.97;5.38;;;16.30;99.90;;;;;;5050939;28;20556;-51
2022/05/20 03:51:46;;;;;;;13.70;6.57;;;16.30;99.90;;;;;;5050848;28;20547;-51
2022/05/20 03:54:13;;;;;;;15.18;6.10;;;16.20;99.90;;;;;;5051192;28;20445;-52
2022/05/20 03:56:40;;;;;;;11.27;5.82;;;16.20;99.90;;;;;;5050163;28;20013;-50
2022/05/20 03:59:10;;;;;;;12.25;5.50;;;16.20;99.90;;;;;;5050102;28;20488;-51
2022/05/20 04:01:56;;;;;;;8.15;5.57;;;16.20;99.90;;;;;;5049138;28;20457;-50
2022/05/20 04:04:33;;;;;;;6.18;4.47;;;16.20;99.90;;;;;;5049040;28;20036;-50
2022/05/20 04:07:01;;;;;;;7.78;4.88;;;16.20;99.90;;;;;;5050048;28;20078;-51
2022/05/20 04:09:26;;;;;;;11.20;5.35;;;16.30;99.90;;;;;;5050286;28;20082;-53
2022/05/20 04:11:55;;;;;;;6.10;5.22;;;16.30;99.90;;;;;;5049766;28;20025;-52
2022/05/20 04:14:22;;;;;;;10.40;5.43;;;16.30;99.90;;;;;;5049950;28;20024;-49
2022/05/20 04:16:54;;;;;;;13.48;4.82;;;16.30;99.90;;;;;;5049333;28;20349;-53
2022/05/20 04:19:20;;;;;;;9.35;4.72;;;16.30;99.90;;;;;;5049730;28;20047;-53
2022/05/20 04:21:45;;;;;;;12.45;5.35;;;16.40;99.90;;;;;;5050659;28;20460;-50
2022/05/20 04:24:11;;;;;;;10.18;5.47;;;16.40;99.90;;;;;;5050221;28;20056;-52
2022/05/20 04:26:37;;;;;;;7.63;4.97;;;16.50;99.90;;;;;;5050295;28;20064;-51
2022/05/20 04:29:02;;;;;;;10.35;5.50;;;16.50;99.90;;;;;;5049429;28;20047;-50
2022/05/20 04:31:28;;;;;;;6.30;5.55;;;16.60;99.90;;;;;;5049817;28;20476;-51
2022/05/20 04:33:54;;;;;;;19.33;5.50;;;16.70;99.90;;;;;;5049581;28;20037;-50
2022/05/20 04:36:20;;;;;;;4.85;4.35;;;16.70;99.90;;;;;;5049625;28;20075;-50
2022/05/20 04:38:45;;;;;;;6.10;4.70;;;16.80;99.90;;;;;;5049605;28;20516;-49
2022/05/20 04:46:57;;;;;;;15.95;5.47;;;17.00;99.90;;;;;;5049408;28;20027;-49
2022/05/20 04:49:27;;;;;;;7.88;4.88;;;17.20;99.90;;;;;;5053234;28;20033;-53
2022/05/20 04:51:53;;;;;;;5.85;4.65;;;17.20;99.90;;;;;;5054143;28;20054;-53
2022/05/20 04:57:03;;;;;;;6.93;5.05;;;17.40;99.90;;;;;;5054579;28;20040;-53
2022/05/20 04:59:33;;;;;;;9.88;5.38;;;17.60;99.90;;;;;;5054290;28;20063;-55
2022/05/20 05:01:59;;;;;;;17.70;5.00;;;17.70;99.90;;;;;;5054220;28;20074;-54
2022/05/20 05:04:25;;;;;;;12.50;5.20;;;17.80;99.90;;;;;;5054171;28;20399;-50
2022/05/20 05:06:52;;;;;;;6.78;4.55;;;18.00;99.90;;;;;;5053739;28;20388;-50
2022/05/20 05:09:18;;;;;;;6.15;4.15;;;18.10;99.90;;;;;;5051678;28;20025;-50
2022/05/20 05:11:44;;;;;;;8.77;3.63;;;18.10;99.90;;;;;;5052939;28;20031;-51
2022/05/20 05:14:13;;;;;;;9.95;3.33;;;18.30;99.90;;;;;;5053703;28;20017;-48
2022/05/20 05:16:39;;;;;;;4.55;3.72;;;18.40;99.90;;;;;;5053850;28;20025;-50
2022/05/20 05:19:06;;;;;;;7.85;3.13;;;18.50;99.90;;;;;;5053890;28;20021;-52
2022/05/20 05:21:32;;;;;;;3.25;2.95;;;18.60;99.90;;;;;;5053878;28;20029;-53
2022/05/20 05:24:00;;;;;;;5.60;3.35;;;18.70;99.90;;;;;;5058886;28;20537;-51
2022/05/20 05:26:31;;;;;;;5.03;3.83;;;18.80;99.90;;;;;;5053592;28;20021;-53
2022/05/20 05:28:57;;;;;;;4.35;3.67;;;19.00;99.90;;;;;;5053392;28;20024;-54
2022/05/20 05:31:24;;;;;;;3.97;2.72;;;19.10;99.90;;;;;;5053874;28;20025;-50
2022/05/20 05:33:50;;;;;;;3.28;2.97;;;19.20;99.90;;;;;;5053545;28;20021;-54
2022/05/20 05:36:18;;;;;;;5.95;2.67;;;19.40;99.90;;;;;;5053614;28;20526;-53
2022/05/20 05:38:44;;;;;;;3.00;2.25;;;19.60;99.90;;;;;;5053385;28;20465;-50
2022/05/20 05:41:10;;;;;;;7.00;2.15;;;19.70;99.90;;;;;;5053644;28;20364;-51
2022/05/20 05:43:37;;;;;;;7.50;2.35;;;19.80;99.90;;;;;;5053242;28;20023;-50
2022/05/20 05:46:03;;;;;;;4.30;2.33;;;19.90;99.90;;;;;;5053502;28;20031;-50
2022/05/20 05:48:30;;;;;;;4.00;2.15;;;20.00;99.90;;;;;;5053180;28;20031;-52
2022/05/20 05:50:55;;;;;;;2.67;2.40;;;20.10;99.90;;;;;;5053180;28;20025;-53
2022/05/20 05:53:24;;;;;;;3.95;2.20;;;20.20;99.90;;;;;;5053034;28;20472;-52
2022/05/20 05:55:58;;;;;;;2.85;2.28;;;20.30;99.90;;;;;;5052891;28;20032;-52
2022/05/20 05:58:25;;;;;;;4.20;2.55;;;20.30;99.90;;;;;;5052787;28;20059;-53
2022/05/20 06:00:51;;;;;;;5.07;2.20;;;20.40;99.90;;;;;;5052224;28;20017;-52
2022/05/20 06:03:16;;;;;;;7.43;2.10;;;20.50;99.90;;;;;;5052978;28;20044;-53
2022/05/20 06:05:44;;;;;;;4.60;2.30;;;20.60;99.90;;;;;;5052934;28;20029;-53
2022/05/20 06:08:09;;;;;;;2.47;2.28;;;20.70;99.90;;;;;;5052766;28;20423;-52
2022/05/20 06:10:36;;;;;;;5.72;1.70;;;20.80;99.90;;;;;;5052844;28;20025;-54
2022/05/20 06:13:02;;;;;;;2.50;2.10;;;20.90;99.90;;;;;;5052654;28;20025;-54
2022/05/20 06:15:28;;;;;;;2.47;2.28;;;21.00;99.90;;;;;;5052849;28;20484;-54
2022/05/20 06:17:55;;;;;;;4.85;2.03;;;21.10;99.90;;;;;;5052777;28;20044;-52
2022/05/20 06:20:23;;;;;;;2.58;2.10;;;21.30;99.90;;;;;;5052674;28;20033;-53
2022/05/20 06:22:50;;;;;;;3.22;1.77;;;21.40;99.10;;;;;;5052462;28;20183;-52
2022/05/20 06:25:17;;;;;;;2.17;1.98;;;21.40;99.90;;;;;;5052437;28;20037;-54
2022/05/20 06:27:43;;;;;;;2.50;2.00;;;21.50;99.90;;;;;;5052263;28;20063;-51
2022/05/20 06:30:12;;;;;;;1.70;1.60;;;21.60;99.90;;;;;;5052378;28;20032;-52
2022/05/20 06:32:38;;;;;;;3.75;1.88;;;21.80;99.40;;;;;;5052309;28;20544;-50
2022/05/20 06:40:51;;;;;;;11.15;2.20;;;22.10;99.30;;;;;;5055543;28;20039;-54
2022/05/20 06:43:20;;;;;;;3.92;2.67;;;22.10;98.70;;;;;;5072047;28;20016;-53
2022/05/20 06:45:51;;;;;;;4.13;2.38;;;22.30;98.50;;;;;;5071716;28;20013;-54
2022/05/20 06:48:17;;;;;;;3.22;1.73;;;22.30;98.90;;;;;;5072045;28;20031;-53
2022/05/20 06:50:43;;;;;;;3.78;2.05;;;22.50;97.80;;;;;;5071741;28;20021;-50
2022/05/20 06:53:09;;;;;;;1.75;1.52;;;22.50;97.40;;;;;;5071901;28;20028;-53
2022/05/20 06:55:35;;;;;;;1.77;1.60;;;22.50;97.70;;;;;;5071876;28;20098;-51
2022/05/20 06:58:02;;;;;;;3.47;2.08;;;22.60;96.60;;;;;;5072100;28;20032;-49
2022/05/20 07:00:28;;;;;;;1.65;1.55;;;22.70;96.50;;;;;;5071826;28;20100;-52
2022/05/20 07:02:54;;;;;;;4.43;1.88;;;22.70;96.90;;;;;;5070806;28;20036;-52
2022/05/20 07:05:20;;;;;;;2.95;2.00;;;22.80;96.30;;;;;;5070999;28;20025;-54
2022/05/20 07:07:46;;;;;;;3.80;3.20;;;22.90;95.90;;;;;;5071649;28;20035;-53
2022/05/20 07:10:13;;;;;;;2.83;1.63;;;23.10;95.50;;;;;;5071664;28;20097;-53
2022/05/20 07:12:39;;;;;;;2.53;1.50;;;23.10;96.00;;;;;;5069555;28;20620;-53
2022/05/20 07:15:06;;;;;;;3.03;1.70;;;23.20;98.00;;;;;;5068751;28;20044;-52
2022/05/20 07:17:31;;;;;;;4.13;1.90;;;23.30;97.50;;;;;;5069830;28;20028;-53
2022/05/20 07:19:57;;;;;;;2.95;2.05;;;23.30;96.30;;;;;;5069672;28;20483;-48
2022/05/20 07:22:23;;;;;;;3.70;1.88;;;23.30;96.70;;;;;;5069029;28;20419;-50
2022/05/20 07:24:49;;;;;;;2.13;1.58;;;23.50;95.90;;;;;;5069483;28;20028;-47
2022/05/20 07:27:15;;;;;;;2.78;1.70;;;23.60;96.40;;;;;;5069006;28;20131;-50
2022/05/20 07:29:42;;;;;;;2.05;1.48;;;23.60;95.00;;;;;;5070401;28;20103;-51
2022/05/20 07:32:08;;;;;;;1.92;1.65;;;23.80;95.10;;;;;;5070383;28;20078;-50
2022/05/20 07:34:34;;;;;;;2.72;1.83;;;23.90;96.00;;;;;;5070975;28;20020;-53
2022/05/20 07:37:00;;;;;;;4.28;2.80;;;23.90;96.70;;;;;;5069517;28;20116;-50
2022/05/20 07:39:25;;;;;;;3.42;1.98;;;24.00;95.40;;;;;;5071310;28;20032;-50
2022/05/20 07:41:52;;;;;;;1.88;1.58;;;24.10;95.40;;;;;;5070722;28;20025;-50
2022/05/20 07:44:19;;;;;;;1.50;1.40;;;24.20;94.40;;;;;;5070005;28;20025;-54
2022/05/20 07:46:45;;;;;;;2.58;1.88;;;24.20;94.10;;;;;;5070824;28;20033;-50
2022/05/20 07:49:11;;;;;;;2.28;1.80;;;24.30;94.30;;;;;;5071085;28;20031;-50
2022/05/20 07:51:41;;;;;;;1.90;1.40;;;24.30;93.90;;;;;;5071183;28;20104;-52
2022/05/20 07:54:12;;;;;;;4.93;2.22;;;24.50;93.30;;;;;;5071231;28;20020;-55
2022/05/20 07:56:42;;;;;;;2.55;1.70;;;24.70;93.50;;;;;;5069664;28;20024;-51
2022/05/20 07:59:10;;;;;;;4.07;2.05;;;24.60;92.70;;;;;;5069883;28;20056;-53
2022/05/20 08:01:38;;;;;;;4.22;1.58;;;24.50;93.00;;;;;;5068410;28;20013;-52
2022/05/20 08:07:10;;;;;;;2.08;1.60;;;25.00;93.10;;;;;;5070042;28;20059;-54
2022/05/20 08:09:36;;;;;;;11.68;1.67;;;25.10;91.80;;;;;;5069542;28;20033;-54
2022/05/20 08:12:03;;;;;;;5.63;2.00;;;24.90;91.30;;;;;;5069560;28;20509;-55
2022/05/20 08:14:29;;;;;;;2.35;1.90;;;25.10;91.60;;;;;;5069883;28;20021;-54
2022/05/20 08:16:59;;;;;;;3.53;1.90;;;25.10;91.50;;;;;;5069093;28;20378;-50
2022/05/20 08:19:26;;;;;;;2.10;1.90;;;25.30;90.90;;;;;;5069660;28;20033;-53
2022/05/20 08:21:51;;;;;;;2.42;1.75;;;25.60;92.30;;;;;;5069748;28;20028;-54
2022/05/20 08:24:17;;;;;;;3.42;1.58;;;25.90;90.40;;;;;;5072800;28;20090;-53
2022/05/20 08:26:43;;;;;;;8.00;1.88;;;26.10;89.20;;;;;;5073092;28;20115;-54
2022/05/20 08:29:12;;;;;;;2.03;1.63;;;26.10;87.50;;;;;;5073453;28;20099;-51
2022/05/20 08:31:39;;;;;;;2.65;1.80;;;26.20;85.30;;;;;;5073027;28;20017;-55
2022/05/20 08:34:06;;;;;;;3.33;1.90;;;25.70;85.20;;;;;;5073214;28;20112;-52
2022/05/20 08:36:31;;;;;;;5.85;2.40;;;25.90;85.40;;;;;;5073988;28;20024;-54
2022/05/20 08:38:57;;;;;;;6.90;2.00;;;26.10;84.10;;;;;;5072632;28;20479;-54
2022/05/20 08:41:30;;;;;;;2.35;1.80;;;26.20;82.70;;;;;;5073179;28;20073;-54
2022/05/20 08:43:55;;;;;;;2.10;1.83;;;26.40;83.70;;;;;;5073153;28;20037;-52
2022/05/20 08:46:23;;;;;;;2.33;1.77;;;26.30;83.60;;;;;;5073147;28;20036;-53
2022/05/20 08:48:53;;;;;;;2.60;1.85;;;26.40;82.70;;;;;;5072923;28;20036;-55
2022/05/20 08:51:21;;;;;;;3.85;1.70;;;26.80;84.50;;;;;;5073134;28;20025;-56
2022/05/20 08:53:57;;;;;;;6.80;2.05;;;27.00;81.60;;;;;;5073416;28;20031;-54
2022/05/20 08:56:25;;;;;;;2.78;1.67;;;27.10;83.00;;;;;;5074322;28;20372;-54
2022/05/20 08:59:01;;;;;;;5.07;2.40;;;27.10;78.20;;;;;;5072710;28;20031;-52
2022/05/20 09:01:41;;;;;;;4.05;2.10;;;27.00;78.60;;;;;;5074293;28;20213;-55
2022/05/20 09:04:08;;;;;;;2.13;1.92;;;27.00;79.50;;;;;;5074206;28;20025;-53
2022/05/20 09:06:40;;;;;;;3.30;2.22;;;26.90;78.20;;;;;;5074072;28;20024;-56
2022/05/20 09:09:13;;;;;;;6.22;1.95;;;27.00;78.70;;;;;;5074065;28;20452;-55
2022/05/20 09:11:41;;;;;;;3.75;2.20;;;27.30;78.90;;;;;;5073763;28;20029;-55
2022/05/20 09:17:24;;;;;;;2.47;2.22;;;27.20;75.80;;;;;;5074019;28;20111;-55
2022/05/20 09:20:05;;;;;;;16.85;2.50;;;27.70;76.90;;;;;;5073721;28;20039;-55
2022/05/20 09:22:37;;;;;;;6.15;2.15;;;27.80;79.20;;;;;;5073728;28;20047;-53
2022/05/20 09:25:18;;;;;;;4.22;2.50;;;28.10;77.50;;;;;;5073701;28;20082;-52
2022/05/20 09:27:44;;;;;;;3.80;2.78;;;28.10;73.50;;;;;;5073514;28;20052;-56
2022/05/20 09:30:12;;;;;;;13.43;12.20;;;28.20;77.00;;;;;;5073318;28;20463;-55
2022/05/20 09:32:47;;;;;;;3.47;2.17;;;28.40;72.60;;;;;;5073617;28;20031;-55
2022/05/20 09:35:19;;;;;;;5.90;2.22;;;28.30;73.20;;;;;;5071336;28;20027;-55
2022/05/20 09:37:51;;;;;;;4.07;2.03;;;28.20;68.80;;;;;;5055576;28;20033;-56
2022/05/20 09:40:39;;;;;;;5.63;2.88;;;28.10;69.60;;;;;;5042784;28;20538;-50
2022/05/20 09:43:09;;;;;;;4.43;2.20;;;27.90;67.40;;;;;;5043079;28;20021;-55
2022/05/20 09:45:44;;;;;;;5.32;2.50;;;28.30;72.20;;;;;;5042930;28;20457;-54
2022/05/20 09:48:14;;;;;;;3.30;2.03;;;28.50;68.60;;;;;;5042369;28;20048;-53
2022/05/20 09:50:39;;;;;;;6.15;2.00;;;28.60;68.60;;;;;;5042136;28;20029;-55
2022/05/20 09:53:32;;;;;;;3.15;2.10;;;28.70;64.80;;;;;;5040844;28;20032;-51
2022/05/20 09:56:22;;;;;;;8.27;2.13;;;28.30;64.50;;;;;;5040926;28;20488;-55
2022/05/20 09:59:25;;;;;;;9.10;3.40;;;28.90;64.50;;;;;;5042118;28;20274;-54
2022/05/20 10:02:55;;;;;;;3.85;2.13;;;29.10;65.20;;;;;;5042416;28;20124;-56
2022/05/20 10:09:01;;;;;;;5.22;2.28;;;29.40;65.80;;;;;;5019642;28;20563;-52
2022/05/20 10:11:37;;;;;;;4.95;2.10;;;29.70;65.30;;;;;;5041541;28;20041;-50
2022/05/20 10:17:43;;;;;;;5.35;2.58;;;29.40;66.90;;;;;;5042266;28;20083;-53
2022/05/20 10:20:50;;;;;;;4.45;2.22;;;29.60;62.70;;;;;;5042096;28;20025;-55
2022/05/20 10:23:20;;;;;;;4.13;2.40;;;30.40;65.00;;;;;;5039359;28;20064;-55
2022/05/20 10:25:56;;;;;;;5.75;2.80;;;30.70;63.00;;;;;;5042120;28;20040;-52
2022/05/20 10:34:25;;;;;;;4.70;2.25;;;30.80;58.90;;;;;;5041758;28;20063;-53
2022/05/20 10:37:01;;;;;;;10.30;2.30;;;31.10;61.80;;;;;;5041677;28;20032;-50
2022/05/20 10:39:54;;;;;;;10.18;2.13;;;30.90;63.00;;;;;;5041122;28;20040;-53
2022/05/20 10:42:57;;;;;;;11.75;2.67;;;31.00;60.40;;;;;;5041597;28;20036;-54
2022/05/20 10:48:51;;;;;;;5.85;2.15;;;31.00;59.60;;;;;;5040390;28;20044;-52
2022/05/20 10:51:54;;;;;;;15.88;3.65;;;31.10;60.80;;;;;;5037928;28;20045;-55
2022/05/20 10:54:35;;;;;;;6.93;2.15;;;30.90;57.40;;;;;;5032774;28;20078;-54
2022/05/20 10:57:08;;;;;;;3.35;2.60;;;31.00;56.70;;;;;;5041143;28;20031;-50
2022/05/20 10:59:34;;;;;;;2.38;2.17;;;31.30;58.40;;;;;;5041698;28;20045;-51
2022/05/20 11:02:02;;;;;;;7.57;2.28;;;31.20;56.60;;;;;;5040880;28;20036;-55
2022/05/20 11:04:42;;;;;;;4.75;2.20;;;31.10;59.80;;;;;;5041279;28;20032;-52
2022/05/20 11:07:27;;;;;;;2.97;1.98;;;30.70;59.00;;;;;;5040897;28;20024;-54
2022/05/20 11:10:14;;;;;;;5.53;2.28;;;30.90;55.70;;;;;;5041131;28;20029;-55
2022/05/20 11:13:14;;;;;;;6.63;2.47;;;31.00;56.90;;;;;;5040081;28;20043;-55
2022/05/20 11:15:46;;;;;;;6.00;2.45;;;31.30;55.70;;;;;;5038276;28;20045;-53
2022/05/20 11:18:40;;;;;;;6.88;2.60;;;30.90;54.90;;;;;;5041147;28;20035;-55
2022/05/20 11:21:24;;;;;;;2.53;1.90;;;31.10;54.40;;;;;;5041148;28;20518;-53
2022/05/20 11:24:05;;;;;;;2.50;1.90;;;31.10;55.40;;;;;;5040386;28;20049;-55
2022/05/20 11:26:51;;;;;;;2.95;2.17;;;31.20;54.30;;;;;;5039491;28;20029;-54
2022/05/20 11:29:39;;;;;;;10.93;2.47;;;31.20;54.00;;;;;;5040855;28;20041;-52
2022/05/20 11:32:09;;;;;;;4.10;2.03;;;31.10;52.00;;;;;;5040866;28;20033;-50
2022/05/20 11:34:53;;;;;;;3.50;1.80;;;31.30;54.70;;;;;;5040630;28;20025;-50
2022/05/20 11:37:56;;;;;;;2.72;1.98;;;31.40;55.10;;;;;;5039847;28;20044;-52
2022/05/20 11:40:57;;;;;;;5.27;2.10;;;31.50;55.40;;;;;;5039593;28;20483;-50
2022/05/20 11:43:30;;;;;;;5.00;1.83;;;31.60;54.70;;;;;;5040885;28;20115;-53
2022/05/20 11:46:14;;;;;;;;;;;31.60;55.80;;;;;;5041031;28;20147;-53
2022/05/20 11:48:39;;;;;;;6.78;2.30;;;31.60;52.80;;;;;;5048199;28;19912;-56
2022/05/20 11:51:16;;;;;;;3.28;1.80;;;32.00;53.10;;;;;;5051377;28;20452;-55
2022/05/20 11:53:58;;;;;;;4.78;2.25;;;32.50;52.90;;;;;;5051062;28;20028;-56
2022/05/20 11:56:46;;;;;;;2.33;1.65;;;32.70;54.90;;;;;;5051358;28;20103;-55
2022/05/20 11:59:23;;;;;;;4.00;2.13;;;32.80;50.10;;;;;;5054402;28;20120;-51
2022/05/20 12:01:53;;;;;;;4.22;1.40;;;33.60;49.10;;;;;;5055399;28;20168;-52
2022/05/20 12:04:24;;;;;;;5.80;1.95;;;34.20;50.30;;;;;;5055151;28;20108;-53
2022/05/20 12:06:57;;;;;;;4.32;2.00;;;34.60;49.60;;;;;;5056694;28;20025;-53
2022/05/20 12:09:39;;;;;;;5.28;2.28;;;34.90;45.10;;;;;;5074296;28;20036;-51
2022/05/20 12:12:27;;;;;;;7.22;1.73;;;34.60;43.50;;;;;;5044676;28;20017;-53
2022/05/20 12:15:11;;;;;;;3.60;1.83;;;35.10;43.80;;;;;;5043646;28;20290;-54
2022/05/20 12:17:46;;;;;;;6.75;1.90;;;36.50;42.60;;;;;;5064120;28;20024;-55
2022/05/20 12:25:58;;;;;;;5.15;1.60;;;37.30;42.30;;;;;;5048697;28;20039;-54
2022/05/20 12:28:24;;;;;;;3.42;1.27;;;37.70;41.00;;;;;;5043990;28;20103;-52
2022/05/20 12:31:13;;;;;;;5.68;1.58;;;37.60;39.10;;;;;;5044329;28;20040;-53
2022/05/20 12:34:06;;;;;;;3.97;1.48;;;36.90;39.60;;;;;;5052478;28;20037;-55
2022/05/20 12:36:38;;;;;;;6.15;1.42;;;37.00;39.20;;;;;;5062552;28;20104;-56
2022/05/20 12:39:06;;;;;;;3.13;1.77;;;37.40;37.70;;;;;;5061672;28;20040;-57
2022/05/20 12:41:53;;;;;;;5.40;1.63;;;37.50;38.00;;;;;;5055677;28;20036;-56
2022/05/20 12:44:21;;;;;;;7.50;1.42;;;38.20;39.80;;;;;;5063943;28;20020;-56
2022/05/20 12:47:37;;;;;;;1.85;1.00;;;40.10;38.60;;;;;;5062380;28;20024;-55
2022/05/20 12:50:19;;;;;;;4.30;1.63;;;40.10;35.50;;;;;;5053707;28;20048;-56
2022/05/20 12:52:46;;;;;;;1.77;1.17;;;39.40;36.70;;;;;;5062375;28;20050;-56
2022/05/20 12:55:19;;;;;;;4.13;1.13;;;39.40;36.80;;;;;;5073502;28;20052;-54
2022/05/20 12:57:59;;;;;;;4.10;1.50;;;40.60;35.30;;;;;;5073471;28;20247;-55
2022/05/20 13:00:31;;;;;;;2.72;1.60;;;41.20;38.70;;;;;;5073861;28;20028;-56
2022/05/20 13:03:10;;;;;;;7.88;1.30;;;39.50;33.80;;;;;;5074037;28;20071;-58
2022/05/20 13:05:46;;;;;;;5.78;1.67;;;39.80;36.70;;;;;;5074002;28;20043;-61
2022/05/20 13:08:17;;;;;;;2.97;1.50;;;40.30;35.20;;;;;;5073943;28;20476;-66
2022/05/20 13:10:43;;;;;;;4.00;1.27;;;40.10;36.70;;;;;;5072681;28;20025;-55
2022/05/20 13:13:13;;;;;;;1.65;1.27;;;40.20;35.10;;;;;;5074005;28;20012;-56
2022/05/20 13:15:40;;;;;;;6.97;1.35;;;38.80;35.40;;;;;;5073898;28;20063;-56
2022/05/20 13:18:12;;;;;;;1.75;1.35;;;40.10;35.70;;;;;;5074109;28;20020;-56
2022/05/20 13:20:41;;;;;;;3.50;1.85;;;40.80;35.60;;;;;;5073506;28;20029;-57
2022/05/20 13:23:08;;;;;;;4.38;1.70;;;41.30;35.30;;;;;;5073424;28;20744;-58
2022/05/20 13:25:35;;;;;;;3.42;1.77;;;40.70;35.40;;;;;;5073089;28;20043;-57
2022/05/20 13:28:01;;;;;;;3.28;1.80;;;41.30;35.50;;;;;;5073644;28;20032;-57
2022/05/20 13:30:30;;;;;;;10.13;3.25;;;40.10;34.20;;;;;;5073798;28;20364;-57
2022/05/20 13:33:14;;;;;;;5.22;1.80;;;39.20;33.80;;;;;;5073652;28;20085;-57
2022/05/20 13:35:45;;;;;;;2.92;1.52;;;40.40;36.60;;;;;;5073465;28;20067;-57
2022/05/20 13:38:11;;;;;;;3.58;1.60;;;40.00;34.00;;;;;;5073677;28;20542;-57
2022/05/20 13:40:42;;;;;;;5.43;1.52;;;41.00;35.50;;;;;;5073488;28;20036;-57
2022/05/20 13:43:13;;;;;;;2.78;1.42;;;41.40;35.30;;;;;;5073263;28;20028;-57
2022/05/20 13:51:48;;;;;;;4.85;1.52;;;40.90;33.10;;;;;;5054677;28;20523;-58
2022/05/20 13:54:24;;;;;;;6.13;1.65;;;41.00;34.10;;;;;;5053386;28;20033;-56
2022/05/20 13:56:53;;;;;;;4.15;1.38;;;40.60;32.90;;;;;;5053219;28;20056;-58
2022/05/20 13:59:35;;;;;;;8.93;2.03;;;40.30;36.20;;;;;;5053170;28;20031;-58
2022/05/20 14:02:10;;;;;;;10.20;1.60;;;40.80;33.10;;;;;;5053009;28;20025;-58
2022/05/20 14:05:13;;;;;;;3.80;1.60;;;40.80;33.70;;;;;;5053086;28;20036;-58